Time,TemperatureF,DewpointF,PressureIn,WindDirection,WindDirectionDegrees,WindSpeedMPH,WindSpeedGustMPH,Humidity,HourlyPrecipIn,Conditions,Clouds,dailyrainin,SolarRadiationWatts/m^2,SoftwareType,DateUTC
2013-05-25 00:01:00,45.0,32.4,30.21,WNW,295,0.0,4.0,61,0.00,,,0.00,0,WeatherCatV1.15B25,2013-05-25 04:01:00,
2013-05-25 00:06:00,44.8,32.6,30.21,WNW,287,4.0,5.0,62,0.00,,,0.00,0,WeatherCatV1.15B25,2013-05-25 04:06:00,
2013-05-25 00:11:00,44.8,32.2,30.21,NW,323,0.0,1.0,61,0.00,,,0.00,0,WeatherCatV1.15B25,2013-05-25 04:11:00,
2013-05-25 00:16:00,44.7,32.1,30.21,WNW,298,2.0,3.0,61,0.00,,,0.00,0,WeatherCatV1.15B25,2013-05-25 04:16:00,
2013-05-25 00:21:00,44.5,33.5,30.22,WNW,298,0.0,0.0,65,0.00,,,0.00,0,WeatherCatV1.15B25,2013-05-25 04:21:00,
2013-05-25 00:26:00,44.1,32.7,30.22,West,274,0.0,2.0,64,0.00,,,0.00,0,WeatherCatV1.15B25,2013-05-25 04:26:00,
2013-05-25 00:31:00,43.8,32.4,30.21,SSW,201,0.0,2.0,64,0.00,,,0.00,0,WeatherCatV1.15B25,2013-05-25 04:31:00,
2013-05-25 00:36:00,43.9,33.3,30.21,SSW,201,0.0,0.0,66,0.00,,,0.00,0,WeatherCatV1.15B25,2013-05-25 04:36:00,
2013-05-25 00:41:00,44.0,34.1,30.21,West,274,0.0,2.0,68,0.00,,,0.00,0,WeatherCatV1.15B25,2013-05-25 04:41:00,
2013-05-25 00:46:00,44.0,34.5,30.21,SSW,205,0.0,1.0,69,0.00,,,0.00,0,WeatherCatV1.15B25,2013-05-25 04:46:00,
2013-05-25 00:51:00,43.7,34.6,30.21,WNW,297,0.0,0.0,70,0.00,,,0.00,0,WeatherCatV1.15B25,2013-05-25 04:51:00,
2013-05-25 00:56:00,43.4,34.3,30.21,WNW,297,0.0,1.0,70,0.00,,,0.00,0,WeatherCatV1.15B25,2013-05-25 04:56:00,
2013-05-25 01:01:00,43.1,34.7,30.21,North,352,0.0,1.0,72,0.00,,,0.00,0,WeatherCatV1.15B25,2013-05-25 05:01:00,
2013-05-25 01:06:00,42.8,34.8,30.21,North,350,2.0,2.0,73,0.00,,,0.00,0,WeatherCatV1.15B25,2013-05-25 05:06:00,
2013-05-25 01:11:00,42.4,35.0,30.21,NNW,346,0.0,2.0,75,0.00,,,0.00,0,WeatherCatV1.15B25,2013-05-25 05:11:00,
2013-05-25 01:16:00,42.2,34.5,30.21,NNW,346,0.0,0.0,74,0.00,,,0.00,0,WeatherCatV1.15B25,2013-05-25 05:16:00,
2013-05-25 01:21:00,42.0,36.0,30.21,West,260,0.0,1.0,79,0.00,,,0.00,0,WeatherCatV1.15B25,2013-05-25 05:21:00,
2013-05-25 01:26:00,41.6,35.6,30.21,WNW,289,0.0,2.0,79,0.00,,,0.00,0,WeatherCatV1.15B25,2013-05-25 05:26:00,
2013-05-25 01:31:00,41.2,35.2,30.21,WNW,289,0.0,2.0,79,0.00,,,0.00,0,WeatherCatV1.15B25,2013-05-25 05:31:00,
2013-05-25 01:36:00,40.9,35.5,30.21,WNW,292,1.0,1.0,81,0.00,,,0.00,0,WeatherCatV1.15B25,2013-05-25 05:36:00,
2013-05-25 01:41:00,40.6,35.2,30.21,WNW,298,0.0,0.0,81,0.00,,,0.00,0,WeatherCatV1.15B25,2013-05-25 05:41:00,
2013-05-25 01:46:00,40.3,35.2,30.20,WNW,298,0.0,1.0,82,0.00,,,0.00,0,WeatherCatV1.15B25,2013-05-25 05:46:00,
2013-05-25 01:51:00,40.2,35.5,30.20,WNW,298,0.0,0.0,83,0.00,,,0.00,0,WeatherCatV1.15B25,2013-05-25 05:51:00,
2013-05-25 01:56:00,39.9,34.9,30.20,WNW,298,1.0,1.0,82,0.00,,,0.00,0,WeatherCatV1.15B25,2013-05-25 05:56:00,
2013-05-25 02:01:00,39.7,34.7,30.20,WNW,298,1.0,2.0,82,0.00,,,0.00,0,WeatherCatV1.15B25,2013-05-25 06:01:00,
2013-05-25 02:06:00,39.4,34.7,30.20,West,261,1.0,2.0,83,0.00,,,0.00,0,WeatherCatV1.15B25,2013-05-25 06:06:00,
2013-05-25 02:11:00,39.6,34.6,30.20,NW,305,3.0,4.0,82,0.00,,,0.00,0,WeatherCatV1.15B25,2013-05-25 06:11:00,
2013-05-25 02:16:00,40.1,34.1,30.20,West,281,3.0,3.0,79,0.00,,,0.00,0,WeatherCatV1.15B25,2013-05-25 06:16:00,
2013-05-25 02:21:00,40.5,34.5,30.20,WNW,282,0.0,2.0,79,0.00,,,0.00,0,WeatherCatV1.15B25,2013-05-25 06:21:00,
2013-05-25 02:26:00,40.6,35.5,30.20,WNW,286,0.0,2.0,82,0.00,,,0.00,0,WeatherCatV1.15B25,2013-05-25 06:26:00,
2013-05-25 02:31:00,40.4,34.4,30.20,WNW,284,2.0,4.0,79,0.00,,,0.00,0,WeatherCatV1.15B25,2013-05-25 06:31:00,
2013-05-25 02:36:00,40.8,33.2,30.20,WNW,302,2.0,3.0,74,0.00,,,0.00,0,WeatherCatV1.15B25,2013-05-25 06:36:00,
2013-05-25 02:41:00,41.1,34.4,30.20,WNW,289,0.0,0.0,77,0.00,,,0.00,0,WeatherCatV1.15B25,2013-05-25 06:41:00,
2013-05-25 02:46:00,41.2,35.2,30.20,WNW,289,0.0,1.0,79,0.00,,,0.00,0,WeatherCatV1.15B25,2013-05-25 06:46:00,
2013-05-25 02:51:00,40.9,35.5,30.20,WNW,289,0.0,1.0,81,0.00,,,0.00,0,WeatherCatV1.15B25,2013-05-25 06:51:00,
2013-05-25 02:57:00,40.5,35.4,30.20,WNW,293,0.0,1.0,82,0.00,,,0.00,0,WeatherCatV1.15B25,2013-05-25 06:57:00,
2013-05-25 03:02:00,40.0,35.0,30.20,WNW,293,0.0,0.0,82,0.00,,,0.00,0,WeatherCatV1.15B25,2013-05-25 07:02:00,
2013-05-25 03:07:00,39.7,34.7,30.20,WNW,293,0.0,1.0,82,0.00,,,0.00,0,WeatherCatV1.15B25,2013-05-25 07:07:00,
2013-05-25 03:12:00,39.5,35.1,30.21,WNW,293,0.0,3.0,84,0.00,,,0.00,0,WeatherCatV1.15B25,2013-05-25 07:12:00,
2013-05-25 03:17:00,39.3,34.9,30.21,WNW,293,0.0,2.0,84,0.00,,,0.00,0,WeatherCatV1.15B25,2013-05-25 07:17:00,
2013-05-25 03:21:00,39.1,35.0,30.21,WNW,301,0.0,2.0,85,0.00,,,0.00,0,WeatherCatV1.15B25,2013-05-25 07:21:00,
2013-05-25 03:26:00,39.2,34.2,30.21,WNW,294,1.0,2.0,82,0.00,,,0.00,0,WeatherCatV1.15B25,2013-05-25 07:26:00,
2013-05-25 03:31:00,39.6,34.9,30.21,WNW,292,2.0,3.0,83,0.00,,,0.00,0,WeatherCatV1.15B25,2013-05-25 07:31:00,
2013-05-25 03:36:00,39.8,34.8,30.21,WNW,287,2.0,2.0,82,0.00,,,0.00,0,WeatherCatV1.15B25,2013-05-25 07:36:00,
2013-05-25 03:41:00,39.9,34.6,30.21,WNW,287,0.0,3.0,81,0.00,,,0.00,0,WeatherCatV1.15B25,2013-05-25 07:41:00,
2013-05-25 03:46:00,39.9,34.9,30.21,West,281,2.0,4.0,82,0.00,,,0.00,0,WeatherCatV1.15B25,2013-05-25 07:46:00,
2013-05-25 03:51:00,40.1,35.7,30.22,WNW,300,2.0,3.0,84,0.00,,,0.00,0,WeatherCatV1.15B25,2013-05-25 07:51:00,
2013-05-25 03:56:00,39.9,35.5,30.22,WNW,300,2.0,2.0,84,0.00,,,0.00,0,WeatherCatV1.15B25,2013-05-25 07:56:00,
2013-05-25 04:01:00,39.9,35.2,30.22,WNW,300,1.0,1.0,83,0.00,,,0.00,0,WeatherCatV1.15B25,2013-05-25 08:01:00,
2013-05-25 04:06:00,40.0,34.0,30.22,SW,224,2.0,4.0,79,0.00,,,0.00,0,WeatherCatV1.15B25,2013-05-25 08:06:00,
2013-05-25 04:11:00,40.7,35.6,30.22,WNW,288,1.0,3.0,82,0.00,,,0.00,0,WeatherCatV1.15B25,2013-05-25 08:11:00,
2013-05-25 04:13:00,40.8,36.0,30.22,West,277,0.0,2.0,83,0.00,,,0.00,0,WeatherCatV1.15B25,2013-05-25 08:13:00,
2013-05-25 04:18:00,40.8,35.4,30.22,West,277,1.0,2.0,81,0.00,,,0.00,0,WeatherCatV1.15B25,2013-05-25 08:18:00,
2013-05-25 04:23:00,40.6,35.2,30.22,WNW,289,1.0,3.0,81,0.00,,,0.00,0,WeatherCatV1.15B25,2013-05-25 08:23:00,
2013-05-25 04:28:00,40.3,34.6,30.22,WNW,289,2.0,3.0,80,0.00,,,0.00,0,WeatherCatV1.15B25,2013-05-25 08:28:00,
2013-05-25 04:33:00,40.3,34.6,30.22,WNW,292,1.0,3.0,80,0.00,,,0.00,0,WeatherCatV1.15B25,2013-05-25 08:33:00,
2013-05-25 04:38:00,40.6,35.5,30.22,WNW,301,0.0,1.0,82,0.00,,,0.00,0,WeatherCatV1.15B25,2013-05-25 08:38:00,
2013-05-25 04:44:00,40.5,35.4,30.22,WNW,301,0.0,2.0,82,0.00,,,0.00,0,WeatherCatV1.15B25,2013-05-25 08:44:00,
2013-05-25 04:49:00,40.3,34.9,30.22,WNW,292,3.0,4.0,81,0.00,,,0.00,0,WeatherCatV1.15B25,2013-05-25 08:49:00,
2013-05-25 04:54:00,40.2,35.5,30.22,WNW,298,1.0,3.0,83,0.00,,,0.00,0,WeatherCatV1.15B25,2013-05-25 08:54:00,
2013-05-25 04:59:00,40.3,35.6,30.22,WNW,298,0.0,0.0,83,0.00,,,0.00,0,WeatherCatV1.15B25,2013-05-25 08:59:00,
2013-05-25 05:04:00,40.1,35.1,30.22,WNW,294,2.0,2.0,82,0.00,,,0.00,0,WeatherCatV1.15B25,2013-05-25 09:04:00,
2013-05-25 05:09:00,39.8,34.8,30.22,NW,305,2.0,3.0,82,0.00,,,0.00,0,WeatherCatV1.15B25,2013-05-25 09:09:00,
2013-05-25 05:14:00,39.7,35.3,30.22,NW,305,0.0,2.0,84,0.00,,,0.00,0,WeatherCatV1.15B25,2013-05-25 09:14:00,
2013-05-25 05:19:00,39.7,34.4,30.22,WNW,302,1.0,3.0,81,0.00,,,0.00,0,WeatherCatV1.15B25,2013-05-25 09:19:00,
2013-05-25 05:24:00,39.9,34.6,30.21,WSW,244,0.0,2.0,81,0.00,,,0.00,0,WeatherCatV1.15B25,2013-05-25 09:24:00,
2013-05-25 05:29:00,40.0,35.0,30.22,WNW,283,2.0,2.0,82,0.00,,,0.00,0,WeatherCatV1.15B25,2013-05-25 09:29:00,
2013-05-25 05:34:00,40.2,35.5,30.22,WNW,293,2.0,3.0,83,0.00,,,0.00,0,WeatherCatV1.15B25,2013-05-25 09:34:00,
2013-05-25 05:39:00,40.2,34.2,30.22,WNW,298,2.0,4.0,79,0.00,,,0.00,0,WeatherCatV1.15B25,2013-05-25 09:39:00,
2013-05-25 05:44:00,40.6,34.3,30.22,West,275,2.0,3.0,78,0.00,,,0.00,0,WeatherCatV1.15B25,2013-05-25 09:44:00,
2013-05-25 05:49:00,41.0,34.4,30.22,WNW,292,2.0,3.0,77,0.00,,,0.00,0,WeatherCatV1.15B25,2013-05-25 09:49:00,
2013-05-25 05:54:00,41.1,34.4,30.22,WNW,300,0.0,2.0,77,0.00,,,0.00,5,WeatherCatV1.15B25,2013-05-25 09:54:00,
2013-05-25 05:59:00,41.3,35.3,30.22,WNW,303,2.0,2.0,79,0.00,,,0.00,9,WeatherCatV1.15B25,2013-05-25 09:59:00,
2013-05-25 06:04:00,41.2,35.2,30.22,NW,310,1.0,2.0,79,0.00,,,0.00,11,WeatherCatV1.15B25,2013-05-25 10:04:00,
2013-05-25 06:07:00,41.1,35.1,30.22,West,272,0.0,5.0,79,0.00,,,0.00,12,WeatherCatV1.15B25,2013-05-25 10:07:00,
2013-05-25 06:12:00,40.8,34.5,30.22,West,272,0.0,1.0,78,0.00,,,0.00,16,WeatherCatV1.15B25,2013-05-25 10:12:00,
2013-05-25 06:17:00,40.6,34.6,30.23,WNW,296,1.0,2.0,79,0.00,,,0.00,21,WeatherCatV1.15B25,2013-05-25 10:17:00,
2013-05-25 06:22:00,40.5,34.8,30.23,WNW,296,1.0,3.0,80,0.00,,,0.00,25,WeatherCatV1.15B25,2013-05-25 10:22:00,
2013-05-25 06:27:00,40.6,34.9,30.23,WNW,290,0.0,0.0,80,0.00,,,0.00,28,WeatherCatV1.15B25,2013-05-25 10:27:00,
2013-05-25 06:32:00,40.9,35.2,30.23,WNW,302,0.0,0.0,80,0.00,,,0.00,32,WeatherCatV1.15B25,2013-05-25 10:32:00,
2013-05-25 06:37:00,41.0,35.3,30.23,NW,320,2.0,3.0,80,0.00,,,0.00,35,WeatherCatV1.15B25,2013-05-25 10:37:00,
2013-05-25 06:42:00,41.1,35.1,30.24,NW,315,0.0,0.0,79,0.00,,,0.00,40,WeatherCatV1.15B25,2013-05-25 10:42:00,
2013-05-25 06:47:00,41.3,35.6,30.23,NW,315,0.0,0.0,80,0.00,,,0.00,44,WeatherCatV1.15B25,2013-05-25 10:47:00,
2013-05-25 06:52:00,41.4,35.4,30.24,NW,315,0.0,0.0,79,0.00,,,0.00,47,WeatherCatV1.15B25,2013-05-25 10:52:00,
2013-05-25 06:57:00,41.6,35.9,30.24,NW,315,0.0,1.0,80,0.00,,,0.00,56,WeatherCatV1.15B25,2013-05-25 10:57:00,
2013-05-25 07:02:00,41.8,35.5,30.24,NE,46,0.0,1.0,78,0.00,,,0.00,58,WeatherCatV1.15B25,2013-05-25 11:02:00,
2013-05-25 07:07:00,42.2,36.2,30.24,West,275,0.0,4.0,79,0.00,,,0.00,62,WeatherCatV1.15B25,2013-05-25 11:07:00,
2013-05-25 07:12:00,42.5,35.5,30.25,NNE,23,2.0,4.0,76,0.00,,,0.00,77,WeatherCatV1.15B25,2013-05-25 11:12:00,
2013-05-25 07:17:00,43.1,36.7,30.25,WNW,287,2.0,3.0,78,0.00,,,0.00,93,WeatherCatV1.15B25,2013-05-25 11:17:00,
2013-05-25 07:22:00,43.5,35.8,30.24,NW,312,0.0,1.0,74,0.00,,,0.00,146,WeatherCatV1.15B25,2013-05-25 11:22:00,
2013-05-25 07:27:00,44.0,35.9,30.24,WNW,296,3.0,5.0,73,0.00,,,0.00,250,WeatherCatV1.15B25,2013-05-25 11:27:00,
2013-05-25 07:32:00,44.6,36.1,30.24,WNW,298,5.0,6.0,72,0.00,,,0.00,264,WeatherCatV1.15B25,2013-05-25 11:32:00,
2013-05-25 07:37:00,45.0,36.2,30.24,NNW,330,1.0,5.0,71,0.00,,,0.00,292,WeatherCatV1.15B25,2013-05-25 11:37:00,
2013-05-25 07:42:00,45.1,36.6,30.24,West,277,2.0,5.0,72,0.00,,,0.00,98,WeatherCatV1.15B25,2013-05-25 11:42:00,
2013-05-25 07:47:00,45.2,36.4,30.25,NW,318,0.0,2.0,71,0.00,,,0.00,114,WeatherCatV1.15B25,2013-05-25 11:47:00,
2013-05-25 07:52:00,45.3,36.5,30.24,NNW,338,3.0,6.0,71,0.00,,,0.00,367,WeatherCatV1.15B25,2013-05-25 11:52:00,
2013-05-25 07:57:00,45.9,37.4,30.24,WNW,295,4.0,4.0,72,0.00,,,0.00,394,WeatherCatV1.15B25,2013-05-25 11:57:00,
2013-05-25 08:02:00,46.5,37.6,30.24,NW,309,1.0,4.0,71,0.00,,,0.00,420,WeatherCatV1.15B25,2013-05-25 12:02:00,
2013-05-25 08:07:00,47.0,37.4,30.24,WNW,300,1.0,8.0,69,0.00,,,0.00,445,WeatherCatV1.15B25,2013-05-25 12:07:00,
2013-05-25 08:12:00,47.4,37.4,30.24,NNW,339,5.0,6.0,68,0.00,,,0.00,540,WeatherCatV1.15B25,2013-05-25 12:12:00,
2013-05-25 08:17:00,47.8,38.1,30.24,SW,223,1.0,3.0,69,0.00,,,0.00,571,WeatherCatV1.15B25,2013-05-25 12:17:00,
2013-05-25 08:23:00,48.3,37.5,30.24,NNE,22,3.0,4.0,66,0.00,,,0.00,587,WeatherCatV1.15B25,2013-05-25 12:23:00,
2013-05-25 08:28:00,48.6,37.8,30.24,NW,316,3.0,4.0,66,0.00,,,0.00,580,WeatherCatV1.15B25,2013-05-25 12:28:00,
2013-05-25 08:33:00,48.8,38.0,30.24,WNW,283,4.0,6.0,66,0.00,,,0.00,626,WeatherCatV1.15B25,2013-05-25 12:33:00,
2013-05-25 08:38:00,49.0,37.8,30.24,West,279,3.0,7.0,65,0.00,,,0.00,654,WeatherCatV1.15B25,2013-05-25 12:38:00,
2013-05-25 08:43:00,49.1,38.6,30.24,WSW,246,1.0,3.0,67,0.00,,,0.00,564,WeatherCatV1.15B25,2013-05-25 12:43:00,
2013-05-25 08:48:00,49.4,37.3,30.24,WNW,302,1.0,5.0,63,0.00,,,0.00,691,WeatherCatV1.15B25,2013-05-25 12:48:00,
2013-05-25 08:53:00,49.7,38.0,30.24,NE,45,1.0,2.0,64,0.00,,,0.00,253,WeatherCatV1.15B25,2013-05-25 12:53:00,
2013-05-25 08:58:00,49.7,38.0,30.24,East,97,2.0,3.0,64,0.00,,,0.00,264,WeatherCatV1.15B25,2013-05-25 12:58:00,
2013-05-25 09:03:00,49.6,37.9,30.24,NW,310,3.0,7.0,64,0.00,,,0.00,241,WeatherCatV1.15B25,2013-05-25 13:03:00,
2013-05-25 09:08:00,49.2,39.5,30.24,SE,146,0.0,3.0,69,0.00,,,0.00,199,WeatherCatV1.15B25,2013-05-25 13:08:00,
2013-05-25 09:13:00,48.9,38.4,30.24,WNW,302,2.0,3.0,67,0.00,,,0.00,281,WeatherCatV1.15B25,2013-05-25 13:13:00,
2013-05-25 09:18:00,49.2,38.3,30.23,ENE,57,0.0,3.0,66,0.00,,,0.00,707,WeatherCatV1.15B25,2013-05-25 13:18:00,
2013-05-25 09:23:00,49.8,39.3,30.23,WNW,282,0.0,1.0,67,0.00,,,0.00,352,WeatherCatV1.15B25,2013-05-25 13:23:00,
2013-05-25 09:28:00,50.2,38.5,30.23,WNW,302,2.0,3.0,64,0.00,,,0.00,218,WeatherCatV1.15B25,2013-05-25 13:28:00,
2013-05-25 09:33:00,50.5,39.6,30.23,WNW,303,1.0,3.0,66,0.00,,,0.00,241,WeatherCatV1.15B25,2013-05-25 13:33:00,
2013-05-25 09:38:00,50.6,40.4,30.23,West,279,1.0,1.0,68,0.00,,,0.00,257,WeatherCatV1.15B25,2013-05-25 13:38:00,
2013-05-25 09:43:00,50.4,38.3,30.22,North,0,0.0,3.0,63,0.00,,,0.00,255,WeatherCatV1.15B25,2013-05-25 13:43:00,
2013-05-25 09:48:00,50.4,39.5,30.22,East,98,0.0,2.0,66,0.00,,,0.00,243,WeatherCatV1.15B25,2013-05-25 13:48:00,
2013-05-25 09:53:00,50.3,39.4,30.22,SW,233,1.0,2.0,66,0.00,,,0.00,248,WeatherCatV1.15B25,2013-05-25 13:53:00,
2013-05-25 09:58:00,50.5,39.6,30.22,WNW,300,0.0,3.0,66,0.00,,,0.00,318,WeatherCatV1.15B25,2013-05-25 13:58:00,
2013-05-25 10:03:00,51.2,40.2,30.22,WNW,286,3.0,4.0,66,0.00,,,0.00,891,WeatherCatV1.15B25,2013-05-25 14:03:00,
2013-05-25 10:08:00,51.7,40.3,30.22,NNE,21,2.0,5.0,65,0.00,,,0.00,965,WeatherCatV1.15B25,2013-05-25 14:08:00,
2013-05-25 10:13:00,51.7,39.5,30.21,WNW,286,2.0,4.0,63,0.00,,,0.00,292,WeatherCatV1.15B25,2013-05-25 14:13:00,
2013-05-25 10:18:00,51.8,38.8,30.22,NNW,332,1.0,5.0,61,0.00,,,0.00,287,WeatherCatV1.15B25,2013-05-25 14:18:00,
2013-05-25 10:23:00,51.9,39.7,30.21,WSW,255,4.0,6.0,63,0.00,,,0.00,186,WeatherCatV1.15B25,2013-05-25 14:23:00,
2013-05-25 10:28:00,51.8,40.4,30.21,WNW,291,2.0,5.0,65,0.00,,,0.00,258,WeatherCatV1.15B25,2013-05-25 14:28:00,
2013-05-25 10:33:00,52.1,39.9,30.21,NW,308,2.0,3.0,63,0.00,,,0.00,904,WeatherCatV1.15B25,2013-05-25 14:33:00,
2013-05-25 10:38:00,52.7,40.9,30.21,West,274,4.0,10.0,64,0.00,,,0.00,879,WeatherCatV1.15B25,2013-05-25 14:38:00,
2013-05-25 10:43:00,53.3,41.8,30.21,WNW,298,3.0,4.0,65,0.00,,,0.00,798,WeatherCatV1.15B25,2013-05-25 14:43:00,
2013-05-25 10:48:00,54.2,41.5,30.21,West,262,2.0,6.0,62,0.00,,,0.00,884,WeatherCatV1.15B25,2013-05-25 14:48:00,
2013-05-25 10:53:00,54.7,40.2,30.21,NNW,338,6.0,12.0,58,0.00,,,0.00,933,WeatherCatV1.15B25,2013-05-25 14:53:00,
2013-05-25 10:58:00,54.7,40.7,30.21,WNW,287,3.0,8.0,59,0.00,,,0.00,944,WeatherCatV1.15B25,2013-05-25 14:58:00,
2013-05-25 11:03:00,54.8,41.2,30.21,NE,50,0.0,2.0,60,0.00,,,0.00,972,WeatherCatV1.15B25,2013-05-25 15:03:00,
2013-05-25 11:08:00,55.3,41.2,30.20,East,101,0.0,3.0,59,0.00,,,0.00,299,WeatherCatV1.15B25,2013-05-25 15:08:00,
2013-05-25 11:14:00,55.1,39.2,30.21,North,349,3.0,10.0,55,0.00,,,0.00,197,WeatherCatV1.15B25,2013-05-25 15:14:00,
2013-05-25 11:19:00,54.6,40.1,30.21,NNW,343,0.0,8.0,58,0.00,,,0.00,995,WeatherCatV1.15B25,2013-05-25 15:19:00,
2013-05-25 11:24:00,55.6,41.1,30.20,West,277,1.0,3.0,58,0.00,,,0.00,960,WeatherCatV1.15B25,2013-05-25 15:24:00,
2013-05-25 11:29:00,56.4,40.4,30.20,WSW,246,5.0,8.0,55,0.00,,,0.00,868,WeatherCatV1.15B25,2013-05-25 15:29:00,
2013-05-25 11:34:00,56.7,41.6,30.20,WSW,244,2.0,5.0,57,0.00,,,0.00,958,WeatherCatV1.15B25,2013-05-25 15:34:00,
2013-05-25 11:39:00,57.2,41.2,30.20,West,274,4.0,9.0,55,0.00,,,0.00,967,WeatherCatV1.15B25,2013-05-25 15:39:00,
2013-05-25 11:44:00,57.5,41.0,30.20,WNW,303,3.0,7.0,54,0.00,,,0.00,970,WeatherCatV1.15B25,2013-05-25 15:44:00,
2013-05-25 11:49:00,57.8,40.3,30.20,NW,306,5.0,12.0,52,0.00,,,0.00,977,WeatherCatV1.15B25,2013-05-25 15:49:00,
2013-05-25 11:54:00,57.9,40.4,30.19,WNW,299,3.0,10.0,52,0.00,,,0.00,991,WeatherCatV1.15B25,2013-05-25 15:54:00,
2013-05-25 11:59:00,58.1,42.5,30.19,NW,307,3.0,5.0,56,0.00,,,0.00,990,WeatherCatV1.15B25,2013-05-25 15:59:00,
2013-05-25 12:04:00,58.7,42.1,30.18,West,279,4.0,10.0,54,0.00,,,0.00,990,WeatherCatV1.15B25,2013-05-25 16:04:00,
2013-05-25 12:09:00,58.9,41.3,30.18,West,268,5.0,11.0,52,0.00,,,0.00,993,WeatherCatV1.15B25,2013-05-25 16:09:00,
2013-05-25 12:14:00,59.1,40.5,30.18,West,261,6.0,13.0,50,0.00,,,0.00,997,WeatherCatV1.15B25,2013-05-25 16:14:00,
2013-05-25 12:19:00,59.4,41.3,30.18,West,275,3.0,10.0,51,0.00,,,0.00,1000,WeatherCatV1.15B25,2013-05-25 16:19:00,
2013-05-25 12:24:00,59.7,39.4,30.18,NW,326,5.0,9.0,47,0.00,,,0.00,1004,WeatherCatV1.15B25,2013-05-25 16:24:00,
2013-05-25 12:29:00,60.0,40.3,30.18,WNW,291,6.0,18.0,48,0.00,,,0.00,1011,WeatherCatV1.15B25,2013-05-25 16:29:00,
2013-05-25 12:34:00,60.1,39.2,30.17,West,272,6.0,13.0,46,0.00,,,0.00,1011,WeatherCatV1.15B25,2013-05-25 16:34:00,
2013-05-25 12:39:00,60.2,39.3,30.17,WNW,287,6.0,12.0,46,0.00,,,0.00,1014,WeatherCatV1.15B25,2013-05-25 16:39:00,
2013-05-25 12:44:00,60.5,41.8,30.17,WNW,296,4.0,8.0,50,0.00,,,0.00,1011,WeatherCatV1.15B25,2013-05-25 16:44:00,
2013-05-25 12:49:00,60.8,41.5,30.17,NW,317,6.0,15.0,49,0.00,,,0.00,1013,WeatherCatV1.15B25,2013-05-25 16:49:00,
2013-05-25 12:54:00,61.1,40.7,30.17,West,262,3.0,5.0,47,0.00,,,0.00,1020,WeatherCatV1.15B25,2013-05-25 16:54:00,
2013-05-25 12:59:00,61.4,39.9,30.17,West,275,3.0,9.0,45,0.00,,,0.00,1020,WeatherCatV1.15B25,2013-05-25 16:59:00,
2013-05-25 13:04:00,61.5,40.5,30.17,NNW,334,3.0,5.0,46,0.00,,,0.00,1027,WeatherCatV1.15B25,2013-05-25 17:04:00,
2013-05-25 13:09:00,61.7,37.8,30.17,West,279,3.0,18.0,41,0.00,,,0.00,1025,WeatherCatV1.15B25,2013-05-25 17:09:00,
2013-05-25 13:14:00,61.6,37.7,30.17,NW,326,5.0,16.0,41,0.00,,,0.00,956,WeatherCatV1.15B25,2013-05-25 17:14:00,
2013-05-25 13:19:00,61.6,38.9,30.17,West,280,7.0,15.0,43,0.00,,,0.00,874,WeatherCatV1.15B25,2013-05-25 17:19:00,
2013-05-25 13:24:00,61.7,40.1,30.17,NW,304,3.0,6.0,45,0.00,,,0.00,640,WeatherCatV1.15B25,2013-05-25 17:24:00,
2013-05-25 13:29:00,62.2,37.6,30.17,NW,304,5.0,13.0,40,0.00,,,0.00,594,WeatherCatV1.15B25,2013-05-25 17:29:00,
2013-05-25 13:34:00,62.2,38.8,30.17,NW,312,12.0,12.0,42,0.00,,,0.00,127,WeatherCatV1.15B25,2013-05-25 17:34:00,
2013-05-25 13:39:00,62.2,38.2,30.17,West,266,10.0,17.0,41,0.00,,,0.00,186,WeatherCatV1.15B25,2013-05-25 17:39:00,
2013-05-25 13:44:00,62.1,37.5,30.17,West,276,5.0,12.0,40,0.00,,,0.00,311,WeatherCatV1.15B25,2013-05-25 17:44:00,
2013-05-25 13:50:00,62.4,40.2,30.17,NNW,327,8.0,11.0,44,0.00,,,0.00,299,WeatherCatV1.15B25,2013-05-25 17:50:00,
2013-05-25 13:55:00,62.6,39.8,30.16,North,2,2.0,11.0,43,0.00,,,0.00,120,WeatherCatV1.15B25,2013-05-25 17:55:00,
2013-05-25 14:00:00,62.4,39.0,30.16,West,275,12.0,15.0,42,0.00,,,0.00,104,WeatherCatV1.15B25,2013-05-25 18:00:00,
2013-05-25 14:05:00,62.3,38.9,30.15,WNW,301,2.0,11.0,42,0.00,,,0.00,202,WeatherCatV1.15B25,2013-05-25 18:05:00,
2013-05-25 14:10:00,62.8,38.7,30.16,WNW,293,6.0,10.0,41,0.00,,,0.00,288,WeatherCatV1.15B25,2013-05-25 18:10:00,
2013-05-25 14:15:00,62.8,38.7,30.15,NW,325,5.0,5.0,41,0.00,,,0.00,137,WeatherCatV1.15B25,2013-05-25 18:15:00,
2013-05-25 14:20:00,62.9,38.8,30.15,SSW,205,5.0,7.0,41,0.00,,,0.00,522,WeatherCatV1.15B25,2013-05-25 18:20:00,
2013-05-25 14:25:00,63.3,41.6,30.15,WNW,290,5.0,8.0,45,0.00,,,0.00,610,WeatherCatV1.15B25,2013-05-25 18:25:00,
2013-05-25 14:30:00,63.7,40.2,30.15,WNW,298,2.0,13.0,42,0.00,,,0.00,745,WeatherCatV1.15B25,2013-05-25 18:30:00,
2013-05-25 14:34:00,63.6,38.8,30.15,WNW,291,7.0,8.0,40,0.00,,,0.00,846,WeatherCatV1.15B25,2013-05-25 18:34:00,
2013-05-25 14:39:00,63.8,39.6,30.16,NW,306,10.0,16.0,41,0.00,,,0.00,974,WeatherCatV1.15B25,2013-05-25 18:39:00,
2013-05-25 14:44:00,63.8,39.6,30.15,NNW,343,2.0,3.0,41,0.00,,,0.00,974,WeatherCatV1.15B25,2013-05-25 18:44:00,
2013-05-25 14:50:00,63.9,40.4,30.15,NW,311,2.0,5.0,42,0.00,,,0.00,1028,WeatherCatV1.15B25,2013-05-25 18:50:00,
2013-05-25 14:55:00,64.7,38.5,30.15,NW,323,5.0,8.0,38,0.00,,,0.00,990,WeatherCatV1.15B25,2013-05-25 18:55:00,
2013-05-25 15:00:00,64.6,39.7,30.15,WNW,288,2.0,7.0,40,0.00,,,0.00,1013,WeatherCatV1.15B25,2013-05-25 19:00:00,
2013-05-25 15:05:00,64.7,41.7,30.15,NW,321,1.0,11.0,43,0.00,,,0.00,1063,WeatherCatV1.15B25,2013-05-25 19:05:00,
2013-05-25 15:09:00,64.8,40.5,30.15,WSW,241,3.0,5.0,41,0.00,,,0.00,958,WeatherCatV1.15B25,2013-05-25 19:09:00,
2013-05-25 15:14:00,65.0,39.4,30.15,West,262,9.0,10.0,39,0.00,,,0.00,1028,WeatherCatV1.15B25,2013-05-25 19:14:00,
2013-05-25 15:19:00,64.4,40.2,30.15,West,269,7.0,8.0,41,0.00,,,0.00,962,WeatherCatV1.15B25,2013-05-25 19:19:00,
2013-05-25 15:24:00,64.2,40.0,30.15,WNW,283,4.0,10.0,41,0.00,,,0.00,967,WeatherCatV1.15B25,2013-05-25 19:24:00,
2013-05-25 15:29:00,64.4,40.8,30.15,NNW,339,3.0,6.0,42,0.00,,,0.00,923,WeatherCatV1.15B25,2013-05-25 19:29:00,
2013-05-25 15:34:00,64.8,40.5,30.15,WNW,286,3.0,6.0,41,0.00,,,0.00,918,WeatherCatV1.15B25,2013-05-25 19:34:00,
2013-05-25 15:39:00,65.2,41.5,30.14,NW,316,6.0,8.0,42,0.00,,,0.00,926,WeatherCatV1.15B25,2013-05-25 19:39:00,
2013-05-25 15:44:00,65.3,41.0,30.14,West,279,4.0,11.0,41,0.00,,,0.00,861,WeatherCatV1.15B25,2013-05-25 19:44:00,
2013-05-25 15:49:00,65.7,41.3,30.14,West,261,4.0,8.0,41,0.00,,,0.00,842,WeatherCatV1.15B25,2013-05-25 19:49:00,
2013-05-25 15:52:00,65.6,38.6,30.14,NNE,23,7.0,12.0,37,0.00,,,0.00,824,WeatherCatV1.15B25,2013-05-25 19:52:00,
2013-05-25 15:57:00,64.9,39.3,30.14,West,274,5.0,14.0,39,0.00,,,0.00,814,WeatherCatV1.15B25,2013-05-25 19:57:00,
2013-05-25 16:02:00,64.6,38.4,30.14,West,260,4.0,12.0,38,0.00,,,0.00,805,WeatherCatV1.15B25,2013-05-25 20:02:00,
2013-05-25 16:07:00,64.4,38.2,30.14,WSW,248,2.0,6.0,38,0.00,,,0.00,791,WeatherCatV1.15B25,2013-05-25 20:07:00,
2013-05-25 16:12:00,64.8,41.2,30.14,NE,56,1.0,7.0,42,0.00,,,0.00,816,WeatherCatV1.15B25,2013-05-25 20:12:00,
2013-05-25 16:17:00,65.4,39.1,30.14,NW,325,3.0,10.0,38,0.00,,,0.00,780,WeatherCatV1.15B25,2013-05-25 20:17:00,
2013-05-25 16:22:00,65.5,39.2,30.14,WNW,300,2.0,10.0,38,0.00,,,0.00,770,WeatherCatV1.15B25,2013-05-25 20:22:00,
2013-05-25 16:27:00,65.1,38.2,30.14,NW,312,6.0,8.0,37,0.00,,,0.00,744,WeatherCatV1.15B25,2013-05-25 20:27:00,
2013-05-25 16:32:00,64.9,39.3,30.14,WSW,256,3.0,10.0,39,0.00,,,0.00,752,WeatherCatV1.15B25,2013-05-25 20:32:00,
2013-05-25 16:37:00,64.3,38.1,30.14,NNW,332,6.0,9.0,38,0.00,,,0.00,717,WeatherCatV1.15B25,2013-05-25 20:37:00,
2013-05-25 16:42:00,64.3,38.1,30.13,NW,315,3.0,7.0,38,0.00,,,0.00,701,WeatherCatV1.15B25,2013-05-25 20:42:00,
2013-05-25 16:47:00,64.3,37.5,30.14,North,7,5.0,14.0,37,0.00,,,0.00,677,WeatherCatV1.15B25,2013-05-25 20:47:00,
2013-05-25 16:52:00,64.1,38.0,30.14,NW,313,5.0,8.0,38,0.00,,,0.00,671,WeatherCatV1.15B25,2013-05-25 20:52:00,
2013-05-25 16:57:00,64.3,38.8,30.14,WNW,286,6.0,12.0,39,0.00,,,0.00,715,WeatherCatV1.15B25,2013-05-25 20:57:00,
2013-05-25 17:02:00,64.3,38.1,30.13,WSW,245,8.0,11.0,38,0.00,,,0.00,722,WeatherCatV1.15B25,2013-05-25 21:02:00,
2013-05-25 17:07:00,64.1,37.3,30.14,WNW,284,7.0,15.0,37,0.00,,,0.00,657,WeatherCatV1.15B25,2013-05-25 21:07:00,
2013-05-25 17:12:00,63.7,38.9,30.14,WSW,241,5.0,7.0,40,0.00,,,0.00,202,WeatherCatV1.15B25,2013-05-25 21:12:00,
2013-05-25 17:17:00,63.7,37.6,30.14,North,351,8.0,9.0,38,0.00,,,0.00,598,WeatherCatV1.15B25,2013-05-25 21:17:00,
2013-05-25 17:23:00,64.0,37.2,30.13,WNW,301,7.0,11.0,37,0.00,,,0.00,561,WeatherCatV1.15B25,2013-05-25 21:23:00,
2013-05-25 17:28:00,64.0,38.5,30.14,West,268,2.0,8.0,39,0.00,,,0.00,543,WeatherCatV1.15B25,2013-05-25 21:28:00,
2013-05-25 17:33:00,64.1,37.3,30.13,NNW,341,3.0,10.0,37,0.00,,,0.00,520,WeatherCatV1.15B25,2013-05-25 21:33:00,
2013-05-25 17:38:00,64.3,37.5,30.13,NW,307,2.0,9.0,37,0.00,,,0.00,504,WeatherCatV1.15B25,2013-05-25 21:38:00,
2013-05-25 17:43:00,64.6,37.7,30.13,North,2,11.0,11.0,37,0.00,,,0.00,496,WeatherCatV1.15B25,2013-05-25 21:43:00,
2013-05-25 17:48:00,64.3,36.8,30.13,NW,309,14.0,15.0,36,0.00,,,0.00,483,WeatherCatV1.15B25,2013-05-25 21:48:00,
2013-05-25 17:53:00,64.0,37.2,30.13,NNW,338,4.0,5.0,37,0.00,,,0.00,455,WeatherCatV1.15B25,2013-05-25 21:53:00,
2013-05-25 17:58:00,63.8,37.0,30.13,NW,308,6.0,12.0,37,0.00,,,0.00,450,WeatherCatV1.15B25,2013-05-25 21:58:00,
2013-05-25 18:03:00,63.8,37.0,30.13,WSW,245,8.0,8.0,37,0.00,,,0.00,434,WeatherCatV1.15B25,2013-05-25 22:03:00,
2013-05-25 18:08:00,63.7,38.3,30.13,WSW,253,5.0,9.0,39,0.00,,,0.00,418,WeatherCatV1.15B25,2013-05-25 22:08:00,
2013-05-25 18:13:00,63.5,36.8,30.13,WNW,298,6.0,11.0,37,0.00,,,0.00,388,WeatherCatV1.15B25,2013-05-25 22:13:00,
2013-05-25 18:18:00,63.3,36.6,30.13,WNW,286,2.0,8.0,37,0.00,,,0.00,76,WeatherCatV1.15B25,2013-05-25 22:18:00,
2013-05-25 18:23:00,63.2,37.2,30.13,NW,310,4.0,7.0,38,0.00,,,0.00,70,WeatherCatV1.15B25,2013-05-25 22:23:00,
2013-05-25 18:29:00,63.1,36.4,30.13,WNW,298,3.0,6.0,37,0.00,,,0.00,62,WeatherCatV1.15B25,2013-05-25 22:29:00,
2013-05-25 18:34:00,63.0,36.3,30.13,NW,310,3.0,8.0,37,0.00,,,0.00,58,WeatherCatV1.15B25,2013-05-25 22:34:00,
2013-05-25 18:39:00,62.9,36.2,30.13,WNW,293,2.0,12.0,37,0.00,,,0.00,53,WeatherCatV1.15B25,2013-05-25 22:39:00,
2013-05-25 18:44:00,62.8,36.8,30.13,NNW,343,2.0,17.0,38,0.00,,,0.00,46,WeatherCatV1.15B25,2013-05-25 22:44:00,
2013-05-25 18:49:00,62.7,37.4,30.13,NNE,22,1.0,4.0,39,0.00,,,0.00,47,WeatherCatV1.15B25,2013-05-25 22:49:00,
2013-05-25 18:54:00,62.6,37.3,30.13,NW,311,8.0,10.0,39,0.00,,,0.00,149,WeatherCatV1.15B25,2013-05-25 22:54:00,
2013-05-25 18:59:00,62.6,37.3,30.13,NW,308,2.0,3.0,39,0.00,,,0.00,49,WeatherCatV1.15B25,2013-05-25 22:59:00,
2013-05-25 19:04:00,62.5,37.2,30.13,NW,323,3.0,5.0,39,0.00,,,0.00,46,WeatherCatV1.15B25,2013-05-25 23:04:00,
2013-05-25 19:09:00,62.4,37.1,30.13,NW,312,5.0,5.0,39,0.00,,,0.00,53,WeatherCatV1.15B25,2013-05-25 23:09:00,
2013-05-25 19:14:00,62.2,36.9,30.13,WSW,253,5.0,9.0,39,0.00,,,0.00,46,WeatherCatV1.15B25,2013-05-25 23:14:00,
2013-05-25 19:19:00,62.1,38.7,30.14,SW,236,3.0,4.0,42,0.00,,,0.00,39,WeatherCatV1.15B25,2013-05-25 23:19:00,
2013-05-25 19:24:00,61.8,36.6,30.14,NW,316,3.0,5.0,39,0.00,,,0.00,30,WeatherCatV1.15B25,2013-05-25 23:24:00,
2013-05-25 19:29:00,61.6,36.4,30.14,NE,38,3.0,7.0,39,0.00,,,0.00,28,WeatherCatV1.15B25,2013-05-25 23:29:00,
2013-05-25 19:34:00,61.6,37.0,30.14,NW,305,3.0,5.0,40,0.00,,,0.00,30,WeatherCatV1.15B25,2013-05-25 23:34:00,
2013-05-25 19:39:00,61.5,37.6,30.14,West,281,0.0,1.0,41,0.00,,,0.00,25,WeatherCatV1.15B25,2013-05-25 23:39:00,
2013-05-25 19:44:00,61.3,36.1,30.14,SW,233,4.0,8.0,39,0.00,,,0.00,19,WeatherCatV1.15B25,2013-05-25 23:44:00,
2013-05-25 19:49:00,61.1,36.0,30.14,NE,45,0.0,3.0,39,0.00,,,0.00,21,WeatherCatV1.15B25,2013-05-25 23:49:00,
2013-05-25 19:54:00,60.9,37.7,30.14,West,279,2.0,2.0,42,0.00,,,0.00,18,WeatherCatV1.15B25,2013-05-25 23:54:00,
2013-05-25 19:59:00,60.6,37.4,30.14,WSW,258,3.0,3.0,42,0.00,,,0.00,16,WeatherCatV1.15B25,2013-05-25 23:59:00,
2013-05-25 20:04:00,60.4,36.0,30.14,WNW,299,0.0,1.0,40,0.00,,,0.00,12,WeatherCatV1.15B25,2013-05-26 00:04:00,
2013-05-25 20:09:00,60.1,35.7,30.14,WNW,300,1.0,2.0,40,0.00,,,0.00,11,WeatherCatV1.15B25,2013-05-26 00:09:00,
2013-05-25 20:14:00,59.7,37.8,30.14,WSW,250,1.0,1.0,44,0.00,,,0.00,7,WeatherCatV1.15B25,2013-05-26 00:14:00,
2013-05-25 20:19:00,59.2,36.7,30.14,WNW,289,0.0,0.0,43,0.00,,,0.00,5,WeatherCatV1.15B25,2013-05-26 00:19:00,
2013-05-25 20:24:00,58.5,37.2,30.14,WNW,288,0.0,0.0,45,0.00,,,0.00,0,WeatherCatV1.15B25,2013-05-26 00:24:00,
2013-05-25 20:29:00,57.9,36.7,30.14,WNW,289,1.0,1.0,45,0.00,,,0.00,0,WeatherCatV1.15B25,2013-05-26 00:29:00,
2013-05-25 20:34:00,57.2,36.6,30.14,WNW,288,0.0,6.0,46,0.00,,,0.00,0,WeatherCatV1.15B25,2013-05-26 00:34:00,
2013-05-25 20:39:00,57.0,40.5,30.15,WNW,288,0.0,0.0,54,0.00,,,0.00,0,WeatherCatV1.15B25,2013-05-26 00:39:00,
2013-05-25 20:44:00,56.4,37.0,30.14,WNW,302,3.0,5.0,48,0.00,,,0.00,0,WeatherCatV1.15B25,2013-05-26 00:44:00,
2013-05-25 20:49:00,56.5,36.5,30.14,North,349,2.0,3.0,47,0.00,,,0.00,0,WeatherCatV1.15B25,2013-05-26 00:49:00,
2013-05-25 20:54:00,57.1,34.8,30.15,NW,311,2.0,3.0,43,0.00,,,0.00,0,WeatherCatV1.15B25,2013-05-26 00:54:00,
2013-05-25 21:00:00,57.7,34.8,30.15,WNW,292,2.0,6.0,42,0.00,,,0.00,0,WeatherCatV1.15B25,2013-05-26 01:00:00,
2013-05-25 21:05:00,57.9,34.3,30.15,WNW,293,3.0,6.0,41,0.00,,,0.00,0,WeatherCatV1.15B25,2013-05-26 01:05:00,
2013-05-25 21:10:00,58.1,34.5,30.15,NW,319,1.0,2.0,41,0.00,,,0.00,0,WeatherCatV1.15B25,2013-05-26 01:10:00,
2013-05-25 21:15:00,57.8,36.0,30.15,WNW,301,0.0,1.0,44,0.00,,,0.00,0,WeatherCatV1.15B25,2013-05-26 01:15:00,
2013-05-25 21:20:00,57.3,33.2,30.15,NNW,339,2.0,3.0,40,0.00,,,0.00,0,WeatherCatV1.15B25,2013-05-26 01:20:00,
2013-05-25 21:25:00,57.2,34.9,30.15,WNW,289,2.0,3.0,43,0.00,,,0.00,0,WeatherCatV1.15B25,2013-05-26 01:25:00,
2013-05-25 21:30:00,57.1,34.8,30.16,NW,310,2.0,3.0,43,0.00,,,0.00,0,WeatherCatV1.15B25,2013-05-26 01:30:00,
2013-05-25 21:35:00,56.8,33.4,30.16,ENE,58,1.0,2.0,41,0.00,,,0.00,0,WeatherCatV1.15B25,2013-05-26 01:35:00,
2013-05-25 21:40:00,56.6,34.4,30.16,NW,324,0.0,0.0,43,0.00,,,0.00,0,WeatherCatV1.15B25,2013-05-26 01:40:00,
2013-05-25 21:45:00,56.2,34.6,30.17,NNW,348,0.0,0.0,44,0.00,,,0.00,0,WeatherCatV1.15B25,2013-05-26 01:45:00,
2013-05-25 21:50:00,55.7,33.6,30.17,ENE,62,0.0,1.0,43,0.00,,,0.00,0,WeatherCatV1.15B25,2013-05-26 01:50:00,
2013-05-25 21:55:00,55.5,33.9,30.17,ENE,62,1.0,1.0,44,0.00,,,0.00,0,WeatherCatV1.15B25,2013-05-26 01:55:00,
2013-05-25 22:00:00,55.2,36.9,30.18,NW,313,1.0,1.0,50,0.00,,,0.00,0,WeatherCatV1.15B25,2013-05-26 02:00:00,
2013-05-25 22:05:00,54.4,37.1,30.18,NW,304,0.0,0.0,52,0.00,,,0.00,0,WeatherCatV1.15B25,2013-05-26 02:05:00,
2013-05-25 22:10:00,53.5,34.8,30.18,West,277,2.0,5.0,49,0.00,,,0.00,0,WeatherCatV1.15B25,2013-05-26 02:10:00,
2013-05-25 22:15:00,53.2,33.5,30.18,NW,306,0.0,5.0,47,0.00,,,0.00,0,WeatherCatV1.15B25,2013-05-26 02:15:00,
2013-05-25 22:20:00,53.5,34.8,30.18,ENE,73,1.0,2.0,49,0.00,,,0.00,0,WeatherCatV1.15B25,2013-05-26 02:20:00,
2013-05-25 22:25:00,53.2,37.0,30.18,NNW,337,1.0,2.0,54,0.00,,,0.00,0,WeatherCatV1.15B25,2013-05-26 02:25:00,
2013-05-25 22:30:00,53.2,35.0,30.18,WNW,294,3.0,3.0,50,0.00,,,0.00,0,WeatherCatV1.15B25,2013-05-26 02:30:00,
2013-05-25 22:35:00,53.3,38.0,30.18,WNW,291,1.0,3.0,56,0.00,,,0.00,0,WeatherCatV1.15B25,2013-05-26 02:35:00,
2013-05-25 22:40:00,53.2,35.0,30.18,WNW,287,2.0,5.0,50,0.00,,,0.00,0,WeatherCatV1.15B25,2013-05-26 02:40:00,
2013-05-25 22:45:00,53.5,35.3,30.18,NW,316,1.0,2.0,50,0.00,,,0.00,0,WeatherCatV1.15B25,2013-05-26 02:45:00,
2013-05-25 22:50:00,53.8,37.1,30.18,WNW,294,1.0,3.0,53,0.00,,,0.00,0,WeatherCatV1.15B25,2013-05-26 02:50:00,
2013-05-25 22:55:00,53.9,35.2,30.19,NW,306,2.0,2.0,49,0.00,,,0.00,0,WeatherCatV1.15B25,2013-05-26 02:55:00,
2013-05-25 23:00:00,53.9,35.7,30.19,WNW,301,5.0,5.0,50,0.00,,,0.00,0,WeatherCatV1.15B25,2013-05-26 03:00:00,
2013-05-25 23:05:00,54.1,35.4,30.18,NW,326,1.0,2.0,49,0.00,,,0.00,0,WeatherCatV1.15B25,2013-05-26 03:05:00,
2013-05-25 23:10:00,54.1,35.4,30.19,WNW,296,1.0,6.0,49,0.00,,,0.00,0,WeatherCatV1.15B25,2013-05-26 03:10:00,
2013-05-25 23:15:00,54.3,35.6,30.18,NW,323,1.0,2.0,49,0.00,,,0.00,0,WeatherCatV1.15B25,2013-05-26 03:15:00,
2013-05-25 23:20:00,54.4,35.1,30.18,NW,312,2.0,3.0,48,0.00,,,0.00,0,WeatherCatV1.15B25,2013-05-26 03:20:00,
2013-05-25 23:25:00,54.3,35.0,30.19,NW,321,2.0,2.0,48,0.00,,,0.00,0,WeatherCatV1.15B25,2013-05-26 03:25:00,
2013-05-25 23:30:00,54.4,35.6,30.19,NNW,329,2.0,3.0,49,0.00,,,0.00,0,WeatherCatV1.15B25,2013-05-26 03:30:00,
2013-05-25 23:35:00,54.2,35.5,30.19,NNW,337,1.0,4.0,49,0.00,,,0.00,0,WeatherCatV1.15B25,2013-05-26 03:35:00,
2013-05-25 23:40:00,54.1,35.9,30.19,NW,312,2.0,5.0,50,0.00,,,0.00,0,WeatherCatV1.15B25,2013-05-26 03:40:00,
2013-05-25 23:45:00,54.0,35.8,30.18,NW,311,1.0,3.0,50,0.00,,,0.00,0,WeatherCatV1.15B25,2013-05-26 03:45:00,
2013-05-25 23:50:00,53.9,36.2,30.19,NNW,337,2.0,2.0,51,0.00,,,0.00,0,WeatherCatV1.15B25,2013-05-26 03:50:00,
2013-05-25 23:55:00,53.8,36.6,30.19,NW,305,0.0,3.0,52,0.00,,,0.00,0,WeatherCatV1.15B25,2013-05-26 03:55:00,